Time;durP1;ratioP1;P1;durP2;ratioP2;P2;SDS_P1;SDS_P2;PMS_P1;PMS_P2;Temp;Humidity;BMP_temperature;BMP_pressure;BME280_temperature;BME280_humidity;BME280_pressure;Samples;Min_cycle;Max_cycle;Signal;HPM_P1;HPM_P2
2022/06/18 00:02:17;;;;;;;3.93;3.27;;;;;;;13.99;100.00;100145.84;5032567;28;20536;-80
2022/06/18 00:04:46;;;;;;;4.30;3.40;;;;;;;13.95;100.00;100141.94;5032748;28;20199;-80
2022/06/18 00:07:16;;;;;;;3.50;3.20;;;;;;;13.89;100.00;100144.75;5044085;28;20649;-79
2022/06/18 00:09:45;;;;;;;3.60;3.30;;;;;;;13.83;100.00;100135.69;5051074;28;20251;-80
2022/06/18 00:15:03;;;;;;;3.53;3.20;;;;;;;13.77;100.00;100141.97;5035871;28;20217;-79
2022/06/18 00:17:30;;;;;;;3.70;3.40;;;;;;;13.73;100.00;100140.78;5032259;28;20209;-80
2022/06/18 00:19:57;;;;;;;3.80;3.50;;;;;;;13.71;100.00;100142.91;5032144;28;20212;-80
2022/06/18 00:22:24;;;;;;;5.03;3.60;;;;;;;13.70;100.00;100145.81;5031961;28;20216;-80
2022/06/18 00:24:51;;;;;;;4.70;4.07;;;;;;;13.66;100.00;100145.47;5032313;28;20224;-80
2022/06/18 00:27:19;;;;;;;4.00;3.60;;;;;;;13.65;100.00;100149.19;5030928;28;20217;-79
2022/06/18 00:29:48;;;;;;;3.70;3.40;;;;;;;13.62;100.00;100153.16;5030868;28;20228;-79
2022/06/18 00:32:15;;;;;;;4.50;4.10;;;;;;;13.60;100.00;100144.50;5030621;28;20239;-81
2022/06/18 00:34:42;;;;;;;4.00;3.70;;;;;;;13.62;100.00;100152.34;5014324;28;20218;-79
2022/06/18 00:37:16;;;;;;;4.53;3.97;;;;;;;13.63;100.00;100144.03;5031912;28;20195;-79
2022/06/18 00:39:43;;;;;;;4.77;3.87;;;;;;;13.61;100.00;100143.44;5014766;28;20196;-78
2022/06/18 00:42:19;;;;;;;4.33;3.90;;;;;;;13.66;100.00;100142.78;5031530;28;21015;-79
2022/06/18 00:44:53;;;;;;;4.67;4.30;;;;;;;13.68;100.00;100138.78;5014710;28;20246;-79
2022/06/18 00:47:27;;;;;;;4.50;4.20;;;;;;;13.69;100.00;100136.91;5001030;28;20266;-80
2022/06/18 00:50:03;;;;;;;4.40;4.00;;;;;;;13.71;100.00;100128.63;5016817;28;20195;-79
2022/06/18 00:52:33;;;;;;;4.83;4.27;;;;;;;13.75;100.00;100136.03;5033619;28;20197;-80
2022/06/18 00:55:20;;;;;;;4.57;4.17;;;;;;;13.78;100.00;100132.03;5034396;28;20233;-80
2022/06/18 00:57:53;;;;;;;4.27;3.93;;;;;;;13.80;100.00;100130.78;5018014;28;20629;-80
2022/06/18 01:00:25;;;;;;;4.13;3.80;;;;;;;13.80;100.00;100130.78;5033088;28;20169;-80
2022/06/18 01:02:52;;;;;;;4.33;3.90;;;;;;;13.77;100.00;100120.44;5031760;28;20218;-80
2022/06/18 01:05:27;;;;;;;4.87;4.07;;;;;;;13.77;100.00;100123.13;5033065;28;20214;-80
2022/06/18 01:08:03;;;;;;;4.90;4.40;;;;;;;13.76;100.00;100121.50;5028116;28;20188;-80
2022/06/18 01:10:33;;;;;;;5.20;3.83;;;;;;;13.75;100.00;100119.03;5013360;28;20573;-81
2022/06/18 01:13:14;;;;;;;4.70;4.00;;;;;;;13.74;100.00;100123.59;5028101;28;20282;-81
2022/06/18 01:15:44;;;;;;;4.30;3.90;;;;;;;13.75;100.00;100122.56;4996563;28;20191;-80
2022/06/18 01:18:12;;;;;;;4.20;3.90;;;;;;;13.74;100.00;100125.47;5011457;28;20289;-80
2022/06/18 01:20:46;;;;;;;4.10;3.80;;;;;;;13.73;100.00;100123.81;5011523;28;20282;-81
2022/06/18 01:23:22;;;;;;;4.17;3.87;;;;;;;13.72;100.00;100122.19;5011395;28;20203;-81
2022/06/18 01:25:51;;;;;;;4.20;3.80;;;;;;;13.65;100.00;100125.78;5028883;28;20222;-81
2022/06/18 01:28:18;;;;;;;5.37;4.20;;;;;;;13.66;100.00;100132.00;4995383;28;20197;-82
2022/06/18 01:30:46;;;;;;;4.40;4.10;;;;;;;13.63;100.00;100124.34;4996300;28;20237;-80
2022/06/18 01:33:16;;;;;;;4.57;3.93;;;;;;;13.60;100.00;100124.81;5044685;28;20580;-81
2022/06/18 01:35:50;;;;;;;4.40;3.80;;;;;;;13.57;100.00;100127.97;5012227;28;20696;-80
2022/06/18 01:38:20;;;;;;;4.67;4.30;;;;;;;13.55;100.00;100122.00;5030150;28;20252;-81
2022/06/18 01:40:57;;;;;;;4.10;3.67;;;;;;;13.54;100.00;100128.41;5014323;28;20689;-80
2022/06/18 01:43:25;;;;;;;4.50;4.10;;;;;;;13.51;100.00;100120.81;4999359;28;20202;-81
2022/06/18 01:45:59;;;;;;;4.20;3.80;;;;;;;13.46;100.00;100118.78;5000517;28;20195;-82
2022/06/18 01:48:34;;;;;;;4.37;4.07;;;;;;;13.44;100.00;100114.66;5027141;28;20743;-81
2022/06/18 01:51:14;;;;;;;4.70;4.30;;;;;;;13.42;100.00;100114.09;5023617;28;20214;-81
2022/06/18 01:53:51;;;;;;;4.37;3.97;;;;;;;13.37;100.00;100117.44;5040292;28;20192;-80
2022/06/18 01:56:24;;;;;;;4.67;4.27;;;;;;;13.37;100.00;100108.56;5040056;28;20228;-81
2022/06/18 01:59:00;;;;;;;4.50;4.10;;;;;;;13.35;100.00;100114.16;5051890;28;20580;-81
2022/06/18 02:01:40;;;;;;;5.70;3.97;;;;;;;13.33;100.00;100112.75;5021713;28;20204;-81
2022/06/18 02:04:07;;;;;;;4.90;4.30;;;;;;;13.31;100.00;100117.53;5053429;28;20412;-81
2022/06/18 02:06:37;;;;;;;4.80;4.30;;;;;;;13.30;100.00;100111.31;5035536;28;20220;-81
2022/06/18 02:09:07;;;;;;;4.90;3.90;;;;;;;13.27;100.00;100106.41;5019562;28;20193;-81
2022/06/18 02:11:35;;;;;;;4.07;3.77;;;;;;;13.28;100.00;100108.03;5020401;28;20205;-82
2022/06/18 02:14:12;;;;;;;6.23;4.10;;;;;;;13.26;100.00;100107.44;5020416;28;20190;-82
2022/06/18 02:16:46;;;;;;;4.40;4.10;;;;;;;13.25;100.00;100108.47;5036268;28;20189;-82
2022/06/18 02:19:16;;;;;;;5.73;4.53;;;;;;;13.23;100.00;100097.13;5053127;28;20197;-82
2022/06/18 02:21:49;;;;;;;4.47;4.10;;;;;;;13.19;100.00;100104.00;5053026;28;20199;-82
2022/06/18 02:24:17;;;;;;;5.50;4.50;;;;;;;13.22;100.00;100101.69;5020169;28;20186;-82
2022/06/18 02:26:45;;;;;;;4.53;4.17;;;;;;;13.22;100.00;100096.31;5021913;28;20225;-82
2022/06/18 02:29:20;;;;;;;4.83;4.33;;;;;;;13.21;100.00;100096.53;5052312;28;20343;-82
2022/06/18 02:31:48;;;;;;;4.93;4.43;;;;;;;13.22;100.00;100100.88;5020158;28;20184;-81
2022/06/18 02:34:21;;;;;;;4.50;4.17;;;;;;;13.21;100.00;100096.53;5020314;28;20194;-82
2022/06/18 02:36:48;;;;;;;4.70;4.30;;;;;;;13.20;100.00;100102.97;5019664;28;20201;-81
2022/06/18 02:39:40;;;;;;;4.60;4.20;;;;;;;13.16;100.00;100105.28;5020674;28;20233;-83
2022/06/18 02:42:07;;;;;;;4.50;3.97;;;;;;;13.13;100.00;100103.03;5019490;28;20268;-81
2022/06/18 02:44:37;;;;;;;6.60;4.33;;;;;;;13.08;100.00;100097.47;5022422;28;20288;-82
2022/06/18 02:47:06;;;;;;;4.33;3.93;;;;;;;13.05;100.00;100097.94;5039427;28;20181;-82
2022/06/18 02:49:39;;;;;;;4.70;4.27;;;;;;;13.05;100.00;100095.25;5043109;28;20213;-81
2022/06/18 02:52:07;;;;;;;4.50;4.10;;;;;;;13.05;100.00;100092.56;5031450;28;20189;-81
2022/06/18 02:54:35;;;;;;;4.30;4.00;;;;;;;13.06;100.00;100083.44;5040900;28;20198;-81
2022/06/18 02:57:09;;;;;;;4.27;3.97;;;;;;;13.09;100.00;100088.38;5037445;28;20209;-80
2022/06/18 02:59:35;;;;;;;3.97;3.53;;;;;;;13.09;100.00;100084.84;5021314;28;20251;-80
2022/06/18 03:02:02;;;;;;;4.13;3.67;;;;;;;13.11;100.00;100080.91;5038567;28;20215;-79
2022/06/18 03:04:29;;;;;;;4.40;4.00;;;;;;;13.15;100.00;100089.38;5039398;28;20190;-82
2022/06/18 03:06:57;;;;;;;4.20;3.80;;;;;;;13.18;100.00;100088.91;5046421;28;20569;-82
2022/06/18 03:09:25;;;;;;;4.23;3.90;;;;;;;13.20;100.00;100084.16;5045258;28;20221;-83
2022/06/18 03:12:07;;;;;;;4.90;3.90;;;;;;;13.26;100.00;100087.78;5052418;28;20717;-82
2022/06/18 03:14:36;;;;;;;4.93;4.40;;;;;;;13.31;100.00;100088.75;5044579;28;20216;-83
2022/06/18 03:17:04;;;;;;;4.10;3.80;;;;;;;13.31;100.00;100088.75;5029444;28;20194;-82
2022/06/18 03:20:00;;;;;;;4.70;4.30;;;;;;;13.27;100.00;100090.25;5047060;28;20202;-85
2022/06/18 03:22:27;;;;;;;4.33;4.00;;;;;;;13.28;100.00;100089.22;5020771;28;20197;-82
2022/06/18 03:24:54;;;;;;;4.43;4.10;;;;;;;13.33;100.00;100100.13;5038167;28;20262;-82
2022/06/18 03:27:21;;;;;;;6.10;4.60;;;;;;;13.39;100.00;100106.47;5037900;28;20262;-81
2022/06/18 03:29:53;;;;;;;5.07;4.17;;;;;;;13.46;100.00;100105.34;5038154;28;20213;-80
2022/06/18 03:32:22;;;;;;;4.43;4.10;;;;;;;13.54;100.00;100102.31;5037446;28;20259;-81
2022/06/18 03:34:50;;;;;;;4.10;3.80;;;;;;;13.62;100.00;100096.59;5038645;28;20225;-82
2022/06/18 03:37:18;;;;;;;3.70;3.40;;;;;;;13.73;100.00;100094.19;5039308;28;20591;-82
2022/06/18 03:39:46;;;;;;;4.40;4.00;;;;;;;13.78;100.00;100092.47;5040044;28;20311;-82
2022/06/18 03:42:13;;;;;;;4.27;3.87;;;;;;;13.84;100.00;100096.94;5056965;28;20229;-81
2022/06/18 03:44:40;;;;;;;4.00;3.60;;;;;;;13.90;100.00;100101.41;5050221;28;20191;-81
2022/06/18 03:47:07;;;;;;;4.13;3.70;;;;;;;13.95;100.00;100096.13;5037691;28;20192;-81
2022/06/18 03:49:37;;;;;;;4.00;3.70;;;;;;;14.00;100.00;100103.53;5036496;28;20657;-80
2022/06/18 03:52:07;;;;;;;3.90;3.50;;;;;;;14.07;100.00;100101.56;5035985;28;20200;-80
2022/06/18 03:54:34;;;;;;;3.80;3.50;;;;;;;14.13;100.00;100099.84;5035829;28;20186;-80
2022/06/18 03:57:05;;;;;;;3.47;3.23;;;;;;;14.20;100.00;100092.44;5035971;28;20535;-80
2022/06/18 03:59:34;;;;;;;3.33;3.03;;;;;;;14.28;100.00;100100.19;5034771;28;20194;-80
2022/06/18 04:02:02;;;;;;;3.77;3.40;;;;;;;14.42;100.00;100098.94;5018184;28;20288;-80
2022/06/18 04:04:35;;;;;;;4.77;3.27;;;;;;;14.68;100.00;100098.50;5066516;28;20194;-82
2022/06/18 04:07:02;;;;;;;3.47;3.17;;;;;;;15.29;100.00;100102.53;5029088;28;20262;-80
2022/06/18 04:09:42;;;;;;;3.30;3.07;;;;;;;16.33;100.00;100093.13;5013265;28;20195;-82
2022/06/18 04:12:15;;;;;;;3.37;3.07;;;;;;;17.39;100.00;100102.81;4997666;28;20194;-83
2022/06/18 04:14:55;;;;;;;3.43;3.10;;;;;;;18.26;100.00;100097.22;5029154;28;20228;-83
2022/06/18 04:17:54;;;;;;;3.07;2.80;;;;;;;18.61;100.00;100090.47;5032209;28;20194;-82
2022/06/18 04:20:29;;;;;;;4.27;3.07;;;;;;;18.56;100.00;100091.25;5032820;28;20190;-82
2022/06/18 04:22:59;;;;;;;3.93;2.70;;;;;;;18.42;100.00;100090.84;5000429;28;20218;-81
2022/06/18 04:25:27;;;;;;;2.93;2.73;;;;;;;18.58;100.00;100089.06;5015657;28;20281;-82
2022/06/18 04:27:58;;;;;;;3.27;2.97;;;;;;;18.92;100.00;100097.72;5031531;28;20198;-82
2022/06/18 04:30:30;;;;;;;3.13;2.77;;;;;;;19.09;100.00;100089.38;5016539;28;20727;-84
2022/06/18 04:33:04;;;;;;;3.10;2.90;;;;;;;18.89;100.00;100096.34;5002619;28;20183;-84
2022/06/18 04:35:35;;;;;;;3.00;2.80;;;;;;;18.70;100.00;100097.03;5017124;28;20225;-84
2022/06/18 04:38:05;;;;;;;2.80;2.60;;;;;;;18.44;100.00;100091.38;5032643;28;20195;-84
2022/06/18 04:40:41;;;;;;;2.90;2.70;;;;;;;18.18;100.00;100088.72;5050896;28;20201;-84
2022/06/18 04:43:43;;;;;;;3.10;2.80;;;;;;;17.98;100.00;100083.94;5021410;28;20206;-84
2022/06/18 04:46:10;;;;;;;3.07;2.77;;;;;;;17.85;100.00;100100.63;5032600;28;20269;-84
2022/06/18 04:48:41;;;;;;;3.30;2.90;;;;;;;17.93;100.00;100094.72;5032869;28;20281;-84
2022/06/18 04:51:08;;;;;;;3.20;2.90;;;;;;;18.07;100.00;100095.13;5016248;28;20234;-84
2022/06/18 04:53:34;;;;;;;3.43;3.00;;;;;;;18.25;100.00;100095.56;5032762;28;20240;-84
2022/06/18 04:56:07;;;;;;;3.27;2.97;;;;;;;18.37;100.00;100092.69;5017271;28;20168;-85
2022/06/18 04:58:35;;;;;;;4.10;3.37;;;;;;;18.52;100.00;100100.13;5033115;28;20478;-84
2022/06/18 05:01:02;;;;;;;3.17;2.87;;;;;;;18.71;100.00;100104.09;5032477;28;20205;-85
2022/06/18 05:04:01;;;;;;;4.10;3.37;;;;;;;18.87;100.00;100103.09;4999022;28;20198;-82
2022/06/18 05:06:46;;;;;;;22.07;19.17;;;;;;;19.04;100.00;100105.63;5012683;28;20193;-84
2022/06/18 05:09:34;;;;;;;5.17;4.70;;;;;;;19.11;100.00;100107.06;5002585;28;20209;-87
2022/06/18 05:12:29;;;;;;;3.20;3.00;;;;;;;19.24;100.00;100106.56;5032981;28;20276;-84
2022/06/18 05:15:05;;;;;;;3.00;2.80;;;;;;;19.44;100.00;100107.78;5012637;28;20289;-85
2022/06/18 05:17:34;;;;;;;2.90;2.70;;;;;;;19.57;100.00;100108.09;5013099;28;20200;-83
2022/06/18 05:20:12;;;;;;;3.63;3.33;;;;;;;19.67;100.00;100110.84;4997105;28;20212;-84
2022/06/18 05:22:39;;;;;;;4.13;3.00;;;;;;;19.84;100.00;100113.31;4996730;28;20583;-84
2022/06/18 05:25:08;;;;;;;3.07;2.87;;;;;;;20.06;100.00;100118.56;4996034;28;20300;-85
2022/06/18 05:27:36;;;;;;;2.90;2.70;;;;;;;20.27;100.00;100109.31;4996121;28;20224;-85
2022/06/18 05:30:28;;;;;;;3.30;3.00;;;;;;;20.48;100.00;100112.88;5013071;28;20303;-84
2022/06/18 05:32:58;;;;;;;4.73;3.20;;;;;;;20.69;100.00;100109.06;5019455;28;20189;-84
2022/06/18 05:35:27;;;;;;;3.23;2.90;;;;;;;20.92;100.00;100110.38;5033176;28;20657;-83
2022/06/18 05:37:54;;;;;;;3.00;2.80;;;;;;;21.05;100.00;100120.69;5015657;28;20203;-83
2022/06/18 05:40:21;;;;;;;2.93;2.63;;;;;;;21.22;99.71;100117.69;5015222;28;20309;-82
2022/06/18 05:42:48;;;;;;;3.30;2.90;;;;;;;21.41;97.21;100121.44;5019365;28;20216;-84
2022/06/18 05:45:15;;;;;;;2.70;2.50;;;;;;;21.64;94.88;100119.97;5035365;28;20231;-84
2022/06/18 05:47:42;;;;;;;3.47;2.80;;;;;;;21.80;92.42;100116.84;5002794;28;20194;-84
2022/06/18 05:50:16;;;;;;;2.80;2.60;;;;;;;21.92;91.58;100116.53;5002531;28;20198;-84
2022/06/18 05:52:44;;;;;;;2.80;2.60;;;;;;;22.06;91.31;100103.91;5002832;28;20284;-84
2022/06/18 05:55:25;;;;;;;3.07;2.87;;;;;;;22.22;89.74;100108.16;5020768;28;20204;-83
2022/06/18 05:58:28;;;;;;;3.10;2.90;;;;;;;22.53;88.92;100108.72;5018244;28;20194;-83
2022/06/18 06:01:04;;;;;;;3.00;2.80;;;;;;;22.91;85.11;100109.72;5019771;28;20208;-83
2022/06/18 06:03:33;;;;;;;2.65;2.45;;;;;;;23.12;84.80;100107.59;5035205;28;20245;-84
2022/06/18 06:06:01;;;;;;;2.90;2.70;;;;;;;23.32;83.51;100107.38;5014879;28;20229;-83
2022/06/18 06:08:28;;;;;;;2.90;2.70;;;;;;;23.49;80.39;100104.19;5015711;28;20199;-83
2022/06/18 06:14:01;;;;;;;2.80;2.60;;;;;;;23.84;78.67;100097.44;5017122;28;20201;-83
2022/06/18 06:16:28;;;;;;;3.20;2.60;;;;;;;24.05;78.98;100096.81;4999074;28;20246;-83
2022/06/18 06:19:00;;;;;;;2.75;2.55;;;;;;;24.41;75.51;100085.31;5015126;28;20187;-83
2022/06/18 06:21:27;;;;;;;2.70;2.50;;;;;;;24.91;72.06;100091.88;5015209;28;20199;-82
2022/06/18 06:23:53;;;;;;;2.85;2.65;;;;;;;25.02;69.73;100092.47;5031213;28;20249;-82
2022/06/18 06:26:25;;;;;;;2.30;2.20;;;;;;;25.41;65.16;100081.78;5031143;28;20191;-83
2022/06/18 06:28:52;;;;;;;2.58;2.38;;;;;;;25.38;65.74;100096.91;5018272;28;20240;-83
2022/06/18 06:31:19;;;;;;;3.45;2.63;;;;;;;25.40;66.43;100091.94;5035429;28;20215;-84
2022/06/18 06:33:46;;;;;;;2.70;2.50;;;;;;;25.66;64.05;100099.69;5035516;28;20202;-83
2022/06/18 06:36:13;;;;;;;2.33;2.20;;;;;;;25.80;62.17;100082.03;5035082;28;20242;-85
2022/06/18 06:38:39;;;;;;;2.83;2.50;;;;;;;26.14;59.90;100092.50;5050955;28;20218;-84
2022/06/18 06:41:12;;;;;;;2.47;2.28;;;;;;;26.60;58.88;100092.19;5033296;28;20268;-81
2022/06/18 06:43:39;;;;;;;2.55;2.35;;;;;;;26.57;61.18;100092.03;5043738;28;20218;-83
2022/06/18 06:46:05;;;;;;;2.42;2.20;;;;;;;26.66;57.47;100081.88;5032501;28;20197;-81
2022/06/18 06:48:32;;;;;;;2.55;2.35;;;;;;;26.81;57.32;100086.16;5033847;28;20193;-81
2022/06/18 06:51:00;;;;;;;2.13;2.03;;;;;;;26.95;53.98;100084.16;5032061;28;20207;-80
2022/06/18 06:53:27;;;;;;;2.92;2.20;;;;;;;27.02;53.81;100081.75;5032350;28;20691;-83
2022/06/18 06:58:39;;;;;;;2.13;1.92;;;;;;;27.69;52.34;100085.06;5035701;28;20301;-79
2022/06/18 07:01:06;;;;;;;2.30;2.10;;;;;;;27.88;51.34;100082.81;5053029;28;20186;-81
2022/06/18 07:03:33;;;;;;;3.15;2.20;;;;;;;28.19;49.21;100088.16;5033507;28;20186;-82
2022/06/18 07:06:01;;;;;;;2.05;1.95;;;;;;;28.36;47.39;100079.91;4996050;28;20187;-83
2022/06/18 07:08:29;;;;;;;1.77;1.67;;;;;;;28.79;44.68;100077.03;5028502;28;20201;-82
2022/06/18 07:10:56;;;;;;;2.50;1.95;;;;;;;28.70;41.94;100072.66;5013010;28;20269;-80
2022/06/18 07:13:28;;;;;;;1.95;1.80;;;;;;;28.88;44.00;100079.78;5012089;28;20198;-81
2022/06/18 07:15:56;;;;;;;2.33;1.92;;;;;;;28.76;41.52;100079.66;5035641;28;20217;-80
2022/06/18 07:18:25;;;;;;;1.70;1.60;;;;;;;28.65;39.93;100076.41;5012642;28;20194;-81
2022/06/18 07:20:52;;;;;;;2.00;1.83;;;;;;;28.39;38.18;100076.47;5012635;28;20257;-81
2022/06/18 07:23:19;;;;;;;1.60;1.38;;;;;;;28.33;40.68;100077.78;5012217;28;20191;-81
2022/06/18 07:25:46;;;;;;;1.80;1.70;;;;;;;28.19;40.47;100076.31;5021804;28;20202;-81
2022/06/18 07:28:13;;;;;;;2.28;1.70;;;;;;;28.05;41.32;100068.22;5015840;28;20221;-81
2022/06/18 07:30:40;;;;;;;2.13;1.90;;;;;;;27.88;42.83;100063.53;5035487;28;20253;-81
2022/06/18 07:33:07;;;;;;;1.90;1.70;;;;;;;27.72;42.80;100069.81;5035339;28;20193;-80
2022/06/18 07:35:35;;;;;;;4.30;1.77;;;;;;;27.57;44.11;100066.44;5052600;28;20263;-81
2022/06/18 07:38:02;;;;;;;1.77;1.67;;;;;;;27.47;41.63;100058.44;5032643;28;20198;-80
2022/06/18 07:40:41;;;;;;;4.97;2.53;;;;;;;27.30;44.76;100065.81;5031061;28;20240;-81
2022/06/18 07:43:08;;;;;;;1.92;1.80;;;;;;;27.15;44.75;100061.59;5031672;28;20805;-82
2022/06/18 07:45:35;;;;;;;2.72;1.60;;;;;;;26.96;44.03;100058.31;5031699;28;20563;-81
2022/06/18 07:48:02;;;;;;;3.17;1.60;;;;;;;26.96;41.13;100050.06;5032742;28;20240;-81
2022/06/18 07:50:30;;;;;;;3.22;1.52;;;;;;;26.83;42.49;100051.72;5032874;28;20691;-81
2022/06/18 07:52:56;;;;;;;2.70;1.38;;;;;;;26.80;41.17;100052.38;5032798;28;20183;-81
2022/06/18 07:55:26;;;;;;;1.88;1.50;;;;;;;26.89;43.73;100050.50;5032425;28;20256;-81
2022/06/18 07:57:53;;;;;;;2.40;1.30;;;;;;;26.98;42.57;100047.78;5031493;28;20220;-81
2022/06/18 08:00:22;;;;;;;1.50;1.40;;;;;;;26.91;44.00;100048.25;5031820;28;20187;-81
2022/06/18 08:02:49;;;;;;;2.95;1.63;;;;;;;26.88;45.01;100057.13;5014194;28;20218;-83
2022/06/18 08:05:25;;;;;;;1.52;1.17;;;;;;;26.78;40.64;100045.59;5030228;28;20194;-81
2022/06/18 08:07:52;;;;;;;2.00;1.40;;;;;;;26.70;41.65;100038.91;5030966;28;20193;-81
2022/06/18 08:10:40;;;;;;;1.35;1.25;;;;;;;26.82;41.04;100033.63;5058845;28;20178;-82
2022/06/18 08:13:07;;;;;;;1.58;1.40;;;;;;;26.94;41.46;100030.31;5030939;28;20241;-83
2022/06/18 08:15:40;;;;;;;3.05;1.50;;;;;;;27.04;40.59;100028.06;5016176;28;20673;-81
2022/06/18 08:18:07;;;;;;;1.73;1.63;;;;;;;27.07;40.92;100023.88;5032278;28;20617;-83
2022/06/18 08:20:53;;;;;;;1.75;1.30;;;;;;;27.10;41.35;100028.75;5017774;28;20175;-83
2022/06/18 08:23:20;;;;;;;2.92;1.60;;;;;;;27.13;41.24;100025.34;5029027;28;20222;-82
2022/06/18 09:15:30;;;;;;;1.95;1.30;;;;;;;28.66;38.44;99978.78;5092365;27;20204;-84
2022/06/18 09:18:03;;;;;;;1.35;1.25;;;;;;;28.66;39.79;99976.03;4995707;28;20195;-83
2022/06/18 09:20:50;;;;;;;1.52;1.42;;;;;;;28.84;36.73;99974.00;4994066;28;20854;-83
2022/06/18 09:23:24;;;;;;;2.53;1.40;;;;;;;28.85;37.96;99962.66;4986802;28;20206;-82
2022/06/18 09:25:53;;;;;;;2.83;1.33;;;;;;;28.92;37.87;99964.91;5009459;28;20221;-83
2022/06/18 09:28:34;;;;;;;1.50;1.40;;;;;;;28.99;37.31;99964.38;5011583;28;20240;-82
2022/06/18 09:31:09;;;;;;;2.17;1.30;;;;;;;29.01;35.26;99956.56;5014654;28;20288;-82
2022/06/18 09:33:44;;;;;;;2.35;1.58;;;;;;;29.00;35.05;99954.94;4988018;28;20441;-82
2022/06/18 09:36:19;;;;;;;1.30;1.17;;;;;;;28.92;36.71;99947.56;5018289;28;20308;-81
2022/06/18 09:38:51;;;;;;;1.83;1.45;;;;;;;29.05;36.58;99947.31;4984055;28;20313;-83
2022/06/18 09:45:32;;;;;;;3.85;1.40;;;;;;;29.20;34.91;99930.16;5013652;28;20253;-81
2022/06/18 09:48:00;;;;;;;2.15;1.30;;;;;;;29.24;35.14;99938.56;4986774;28;20194;-81
2022/06/18 09:50:40;;;;;;;2.78;1.38;;;;;;;29.33;36.42;99933.00;5054479;28;20605;-83
2022/06/18 09:53:15;;;;;;;2.05;1.30;;;;;;;29.41;36.62;99935.69;5011089;28;20232;-81
2022/06/18 09:56:10;;;;;;;1.33;1.23;;;;;;;29.48;34.76;99938.72;4997908;28;20284;-83
2022/06/18 09:59:47;;;;;;;2.50;1.40;;;;;;;29.60;34.28;99940.72;5022839;28;20241;-81
2022/06/18 10:02:21;;;;;;;1.45;1.35;;;;;;;29.70;35.28;99937.56;5012743;28;20284;-82
2022/06/18 10:08:39;;;;;;;1.67;1.45;;;;;;;29.74;32.29;99921.91;5005173;28;20332;-81
2022/06/18 10:21:32;;;;;;;2.65;2.38;;;;;;;29.70;34.92;99915.47;4932641;28;20227;-83
2022/06/18 10:24:16;;;;;;;1.50;1.40;;;;;;;29.80;34.86;99917.00;4944512;28;20331;-84
2022/06/18 10:27:15;;;;;;;2.33;1.85;;;;;;;29.87;34.06;99914.47;4941353;28;20300;-83
2022/06/18 10:29:52;;;;;;;2.28;2.08;;;;;;;29.88;34.29;99919.69;4943098;28;20273;-83
2022/06/18 10:32:30;;;;;;;2.95;1.80;;;;;;;29.98;33.15;99904.66;4945688;28;20314;-83
2022/06/18 10:35:22;;;;;;;1.88;1.60;;;;;;;29.80;33.06;99904.00;4940904;28;20248;-82
2022/06/18 10:59:11;;;;;;;1.90;1.75;;;;;;;30.27;30.78;99867.75;5013763;28;20194;-83
2022/06/18 11:02:28;;;;;;;1.92;1.65;;;;;;;30.44;30.57;99873.84;5023062;28;20208;-83
2022/06/18 11:04:58;;;;;;;4.22;1.65;;;;;;;30.52;30.55;99861.88;5012796;28;20209;-82
2022/06/18 11:07:28;;;;;;;1.85;1.65;;;;;;;30.62;31.77;99866.13;5009042;28;20197;-83
2022/06/18 11:09:58;;;;;;;1.83;1.60;;;;;;;30.71;30.61;99853.00;4988343;28;20213;-82
2022/06/18 11:12:31;;;;;;;1.75;1.55;;;;;;;30.85;31.43;99844.31;5001308;28;20315;-83
2022/06/18 11:14:59;;;;;;;2.38;1.65;;;;;;;30.71;31.82;99846.66;4999966;28;20716;-81
2022/06/18 11:17:41;;;;;;;1.70;1.60;;;;;;;30.94;31.40;99853.28;5045528;28;20275;-83
2022/06/18 11:20:17;;;;;;;3.60;1.60;;;;;;;30.92;31.02;99839.81;5030822;28;20992;-83
2022/06/18 11:22:50;;;;;;;3.35;1.38;;;;;;;31.21;31.54;99847.03;5026379;28;20586;-82
2022/06/18 11:25:41;;;;;;;1.70;1.60;;;;;;;31.38;30.22;99841.19;5033027;28;20299;-83
2022/06/18 11:32:45;;;;;;;4.53;1.90;;;;;;;31.51;29.84;99822.53;5039344;28;20291;-83
2022/06/18 11:35:19;;;;;;;1.70;1.60;;;;;;;31.48;30.83;99828.78;5026780;28;20312;-83
2022/06/18 11:38:01;;;;;;;2.75;1.90;;;;;;;31.66;30.37;99823.75;4999431;28;20292;-83
2022/06/18 11:40:29;;;;;;;1.90;1.80;;;;;;;31.82;30.19;99817.06;5018948;28;20193;-83
2022/06/18 11:42:58;;;;;;;2.10;1.90;;;;;;;31.83;30.90;99821.44;5025675;28;20258;-83
2022/06/18 11:45:41;;;;;;;2.40;1.77;;;;;;;31.80;30.79;99813.84;5019751;28;20247;-82
2022/06/18 11:48:26;;;;;;;2.03;1.67;;;;;;;31.93;32.13;99809.03;5051491;28;20190;-83
2022/06/18 11:50:55;;;;;;;1.85;1.75;;;;;;;31.93;30.18;99789.63;5013603;28;20254;-83
2022/06/18 11:53:35;;;;;;;1.70;1.60;;;;;;;31.78;30.28;99798.75;5051946;28;20202;-83
2022/06/18 11:56:06;;;;;;;2.13;1.70;;;;;;;31.48;30.73;99793.59;5017080;28;20193;-83
2022/06/18 11:58:47;;;;;;;2.95;1.88;;;;;;;31.70;30.22;99802.50;5018087;28;20252;-82
2022/06/18 12:01:39;;;;;;;1.90;1.67;;;;;;;31.58;30.92;99789.53;5018940;28;20668;-83
2022/06/18 12:04:31;;;;;;;2.35;1.83;;;;;;;31.24;29.82;99788.19;5021054;28;20206;-83
2022/06/18 12:07:28;;;;;;;2.05;1.83;;;;;;;31.42;30.39;99781.19;5018919;28;20206;-83
2022/06/18 12:09:56;;;;;;;1.85;1.70;;;;;;;31.60;30.17;99772.56;5030444;28;20672;-83
2022/06/18 12:12:31;;;;;;;1.70;1.60;;;;;;;31.69;30.13;99770.41;5041783;28;20761;-83
2022/06/18 12:15:04;;;;;;;1.70;1.60;;;;;;;31.84;29.83;99772.38;5057293;28;20227;-84
2022/06/18 12:17:36;;;;;;;2.50;1.60;;;;;;;32.07;29.12;99767.00;5037416;28;20244;-83
2022/06/18 12:20:12;;;;;;;1.90;1.67;;;;;;;32.18;29.11;99768.09;5065031;28;20198;-83
2022/06/18 12:22:44;;;;;;;1.88;1.70;;;;;;;31.78;28.79;99760.75;5016300;28;20201;-83
2022/06/18 12:25:29;;;;;;;1.98;1.60;;;;;;;32.14;29.12;99770.00;5043359;28;20226;-83
2022/06/18 12:28:01;;;;;;;2.38;1.77;;;;;;;32.43;28.85;99763.13;5056867;28;20273;-83
2022/06/18 12:30:32;;;;;;;3.38;1.90;;;;;;;32.62;29.56;99754.81;5057373;28;20190;-83
2022/06/18 12:33:04;;;;;;;2.78;1.90;;;;;;;32.85;28.32;99766.06;5034880;28;20632;-83
2022/06/18 12:35:52;;;;;;;3.22;1.75;;;;;;;32.75;27.90;99750.81;5031561;28;20333;-82
2022/06/18 12:38:42;;;;;;;1.90;1.73;;;;;;;32.96;28.47;99756.78;5036038;28;20208;-83
2022/06/18 12:41:39;;;;;;;2.88;1.70;;;;;;;33.10;27.90;99745.16;5030965;28;20287;-83
2022/06/18 12:44:30;;;;;;;3.75;1.83;;;;;;;33.09;27.85;99737.97;5056491;28;20189;-84
2022/06/18 12:47:36;;;;;;;1.70;1.60;;;;;;;33.04;28.04;99750.19;5036625;28;20197;-84
2022/06/18 12:50:11;;;;;;;1.60;1.50;;;;;;;33.21;28.33;99740.66;5031071;28;20686;-84
2022/06/18 12:52:44;;;;;;;1.70;1.60;;;;;;;33.58;28.08;99736.16;5052309;28;20209;-84
2022/06/18 12:55:28;;;;;;;1.92;1.80;;;;;;;33.57;27.26;99734.56;5034976;28;20259;-83
2022/06/18 12:58:12;;;;;;;1.70;1.60;;;;;;;33.70;26.91;99724.06;5035772;28;20193;-83
2022/06/18 13:01:04;;;;;;;1.67;1.50;;;;;;;34.01;26.73;99731.34;5056145;28;20659;-81
2022/06/18 13:03:36;;;;;;;1.88;1.55;;;;;;;34.14;26.65;99729.94;5046095;28;20217;-81
2022/06/18 13:06:13;;;;;;;2.08;1.70;;;;;;;34.33;26.30;99740.16;5052137;28;20228;-82
2022/06/18 13:09:01;;;;;;;2.53;2.00;;;;;;;34.56;26.63;99715.84;5018634;28;20197;-82
2022/06/18 13:11:43;;;;;;;1.90;1.80;;;;;;;35.00;26.13;99717.97;5053939;28;20663;-83
2022/06/18 13:14:22;;;;;;;1.92;1.73;;;;;;;35.27;24.79;99713.94;5036687;28;20217;-81
2022/06/18 13:16:54;;;;;;;2.50;1.67;;;;;;;36.49;24.43;99709.69;5042704;28;20233;-83
2022/06/18 13:19:39;;;;;;;2.28;1.45;;;;;;;37.32;23.51;99711.63;5011365;28;20189;-82
2022/06/18 13:22:06;;;;;;;1.85;1.75;;;;;;;37.97;22.25;99694.47;5017841;28;20202;-83
2022/06/18 13:30:41;;;;;;;2.42;1.75;;;;;;;39.53;20.57;99679.78;5041256;28;20247;-82
2022/06/18 13:33:19;;;;;;;2.28;1.70;;;;;;;40.14;19.75;99688.44;5044472;28;20220;-82
2022/06/18 13:35:52;;;;;;;1.60;1.50;;;;;;;40.96;18.91;99677.03;5012577;28;20221;-82
2022/06/18 13:38:45;;;;;;;1.90;1.70;;;;;;;40.99;18.62;99677.00;5009862;28;20198;-82
2022/06/18 13:41:27;;;;;;;2.60;1.58;;;;;;;40.37;18.98;99669.75;5013277;28;20246;-82
2022/06/18 13:44:26;;;;;;;2.03;1.50;;;;;;;40.02;19.71;99664.53;5050544;28;20209;-80